Terminal Aerodrome Forecast
Issued by NWS Austin/San Antonio, TX

Home | Current Version | Previous Version | Text Only | Print | Product List | Glossary On
Versions: 1 2 3 4 5 6 7 8 9 10 11 12
212
FTUS44 KEWX 080527
TAFDRT
TAF
KDRT 080527Z 0806/0906 36007KT P6SM SCT250
     FM080800 34011KT P6SM BKN250
     FM082100 31006KT P6SM BKN250=

USA.gov is the U.S. government's official web portal to all federal, state and local government web resources and services.